Time;durP1;ratioP1;P1;durP2;ratioP2;P2;SDS_P1;SDS_P2;PMS_P1;PMS_P2;Temp;Humidity;BMP_temperature;BMP_pressure;BME280_temperature;BME280_humidity;BME280_pressure;Samples;Min_cycle;Max_cycle;Signal;HPM_P1;HPM_P2
2021/08/31 00:01:35;;;;;;;;;0.00;0.00;;;;;17.83;66.77;101968.56;5040039;28;46069;-81
2021/08/31 00:04:00;;;;;;;;;0.00;0.00;;;;;17.64;66.23;101933.50;5040812;28;45261;-82
2021/08/31 00:06:26;;;;;;;;;0.00;0.00;;;;;17.83;66.25;101965.94;5040649;28;45369;-80
2021/08/31 00:08:51;;;;;;;;;0.00;0.00;;;;;17.86;66.67;101958.03;5023666;28;45456;-81
2021/08/31 00:11:16;;;;;;;;;0.00;0.00;;;;;17.80;65.78;101950.13;5030312;28;47101;-81
2021/08/31 00:13:42;;;;;;;;;1.00;0.00;;;;;17.58;66.59;101929.13;5040750;28;45291;-81
2021/08/31 00:16:07;;;;;;;;;1.00;0.00;;;;;17.71;66.22;101941.34;5040982;28;45263;-81
2021/08/31 00:18:33;;;;;;;;;0.00;0.00;;;;;17.87;66.36;101962.41;5023927;28;45257;-81
2021/08/31 00:20:58;;;;;;;;;0.00;0.00;;;;;17.88;66.19;101964.16;5039905;28;45315;-82
2021/08/31 00:23:23;;;;;;;;;0.00;0.00;;;;;17.80;66.05;101963.31;5040485;28;45296;-83
2021/08/31 00:25:52;;;;;;;;;0.00;0.00;;;;;17.59;66.22;101939.66;5109451;27;45318;-83
2021/08/31 00:28:19;;;;;;;;;0.00;0.00;;;;;17.78;66.36;101965.03;5110556;27;45471;-82
2021/08/31 00:30:44;;;;;;;;;0.00;0.00;;;;;17.78;66.62;101965.03;5039173;28;46311;-83
2021/08/31 00:33:09;;;;;;;;;0.00;0.00;;;;;17.73;66.17;101962.41;5040260;28;45284;-83
2021/08/31 00:35:35;;;;;;;;;0.00;0.00;;;;;17.67;66.19;101946.66;5040785;28;45241;-81
2021/08/31 00:38:00;;;;;;;;;1.50;0.75;;;;;17.75;66.36;101962.41;5040787;28;45340;-82
2021/08/31 00:40:26;;;;;;;;;2.00;0.75;;;;;17.69;66.63;101968.56;5039799;28;45512;-81
2021/08/31 00:42:51;;;;;;;;;0.00;0.00;;;;;17.68;66.32;101956.31;5020810;28;45182;-82
2021/08/31 00:45:17;;;;;;;;;1.00;0.00;;;;;17.64;66.35;101939.63;5002277;28;45594;-82
2021/08/31 00:47:42;;;;;;;;;1.00;0.00;;;;;17.46;66.23;101936.13;5020358;28;45240;-81
2021/08/31 00:50:08;;;;;;;;;0.00;0.00;;;;;17.55;66.62;101948.41;5019896;28;45316;-81
2021/08/31 00:52:33;;;;;;;;;0.00;0.00;;;;;17.43;66.64;101940.53;5021986;28;45702;-81
2021/08/31 00:54:59;;;;;;;;;0.00;0.00;;;;;17.53;66.70;101963.34;5040168;28;45293;-82
2021/08/31 00:57:26;;;;;;;;;1.00;1.00;;;;;17.26;67.17;101924.75;5040217;28;45423;-83
2021/08/31 00:59:52;;;;;;;;;0.00;0.00;;;;;17.29;67.80;101957.22;5039961;28;46399;-82
2021/08/31 01:02:17;;;;;;;;;1.00;1.00;;;;;17.14;68.04;101957.19;5040876;28;45341;-81
2021/08/31 01:04:42;;;;;;;;;0.00;0.00;;;;;16.56;67.79;101886.97;5021703;27;45336;-82
2021/08/31 01:07:08;;;;;;;;;0.00;0.00;;;;;16.98;67.88;101965.06;5038742;28;45612;-81
2021/08/31 01:09:35;;;;;;;;;0.00;0.00;;;;;16.95;68.79;101963.31;5039346;28;45427;-81
2021/08/31 01:12:00;;;;;;;;;1.00;0.00;;;;;17.00;68.24;101968.53;5021043;28;45775;-82
2021/08/31 01:14:26;;;;;;;;;0.00;0.00;;;;;17.04;68.44;101966.81;5038939;28;45339;-82
2021/08/31 01:16:52;;;;;;;;;0.00;0.00;;;;;17.05;68.13;101968.56;5039623;28;45254;-82
2021/08/31 01:19:28;;;;;;;;;0.00;0.00;;;;;16.96;68.10;101959.78;5039563;28;45227;-82
2021/08/31 01:21:53;;;;;;;;;0.00;0.00;;;;;16.81;68.02;101938.72;5030913;28;45298;-83
2021/08/31 01:24:19;;;;;;;;;0.00;0.00;;;;;16.90;68.66;101974.66;5103355;27;45408;-82
2021/08/31 01:26:45;;;;;;;;;0.00;0.00;;;;;16.99;67.89;101977.31;5124549;27;45205;-82
2021/08/31 01:29:10;;;;;;;;;0.00;0.00;;;;;16.84;68.21;101950.13;5140576;27;47957;-82
2021/08/31 01:31:35;;;;;;;;;0.00;0.00;;;;;16.82;67.83;101927.34;5076695;27;45263;-82
2021/08/31 01:34:01;;;;;;;;;0.00;0.00;;;;;16.92;67.96;101965.03;5021645;28;45245;-82
2021/08/31 01:36:26;;;;;;;;;0.00;0.00;;;;;16.71;68.10;101949.22;5039448;28;45268;-82
2021/08/31 01:38:55;;;;;;;;;0.00;0.00;;;;;16.82;68.61;101972.03;5038748;28;45286;-82
2021/08/31 01:41:21;;;;;;;;;0.50;0.00;;;;;16.60;68.33;101937.78;5039280;28;45419;-82
2021/08/31 01:43:47;;;;;;;;;0.00;0.00;;;;;16.66;68.66;101961.47;5041062;28;45184;-82
2021/08/31 01:46:13;;;;;;;;;0.00;0.00;;;;;16.72;68.60;101971.13;5042542;28;45268;-82
2021/08/31 01:48:38;;;;;;;;;0.50;0.00;;;;;16.74;69.01;101974.66;5020579;28;47130;-82
2021/08/31 01:51:05;;;;;;;;;0.00;0.00;;;;;16.49;68.50;101922.00;5020146;28;45163;-81
2021/08/31 01:53:31;;;;;;;;;0.00;0.00;;;;;16.62;68.59;101940.41;5024501;28;45195;-82
2021/08/31 01:55:56;;;;;;;;;0.00;0.00;;;;;16.71;68.69;101945.72;5042667;28;45124;-83
2021/08/31 01:58:21;;;;;;;;;0.00;0.00;;;;;16.91;69.00;101971.19;5041727;28;45418;-82
2021/08/31 02:00:47;;;;;;;;;0.25;0.00;;;;;16.84;68.29;101949.22;5042061;28;45370;-82
2021/08/31 02:03:13;;;;;;;;;0.00;0.00;;;;;16.91;68.24;101945.75;5042204;28;45314;-82
2021/08/31 02:05:38;;;;;;;;;0.00;0.00;;;;;16.89;67.95;101936.09;5042320;28;45401;-83
2021/08/31 02:08:03;;;;;;;;;0.00;0.00;;;;;16.86;67.49;101921.19;5041571;28;45379;-84
2021/08/31 02:10:30;;;;;;;;;0.00;0.00;;;;;17.13;68.01;101969.50;5042135;28;45341;-82
2021/08/31 02:12:55;;;;;;;;;0.00;0.00;;;;;17.18;67.60;101980.03;5042311;28;45268;-82
2021/08/31 02:15:21;;;;;;;;;0.00;0.00;;;;;16.96;67.98;101929.97;5042779;28;45322;-82
2021/08/31 02:17:46;;;;;;;;;0.00;0.00;;;;;17.14;67.90;101960.72;5041647;28;45332;-83
2021/08/31 02:20:12;;;;;;;;;0.00;0.00;;;;;16.91;67.44;101947.50;5041708;28;45239;-82
2021/08/31 02:22:39;;;;;;;;;0.00;0.00;;;;;16.89;67.80;101941.34;5041842;28;45174;-82
2021/08/31 02:25:05;;;;;;;;;0.00;0.00;;;;;17.04;67.87;101953.66;5042269;28;45214;-82
2021/08/31 02:27:30;;;;;;;;;0.00;0.00;;;;;17.10;67.82;101961.59;5041527;28;46342;-82
2021/08/31 02:29:56;;;;;;;;;0.00;0.00;;;;;17.24;67.54;101979.16;5040087;28;45214;-82
2021/08/31 02:32:21;;;;;;;;;0.00;0.00;;;;;16.95;67.71;101947.53;5042106;28;45221;-82
2021/08/31 02:34:47;;;;;;;;;0.00;0.00;;;;;17.12;67.45;101972.97;5023900;28;45342;-82
2021/08/31 02:37:12;;;;;;;;;0.00;0.00;;;;;16.93;67.67;101951.88;5041527;28;45315;-82
2021/08/31 02:39:37;;;;;;;;;0.00;0.00;;;;;17.07;67.60;101983.53;5041296;28;45541;-82
2021/08/31 02:42:03;;;;;;;;;2.00;0.00;;;;;16.98;67.90;101962.41;5041766;28;45297;-82
2021/08/31 02:44:28;;;;;;;;;1.00;0.00;;;;;16.89;67.97;101963.28;5041878;28;45234;-83
2021/08/31 02:46:54;;;;;;;;;1.75;0.00;;;;;16.59;68.41;101922.91;5041561;28;46178;-82
2021/08/31 02:49:19;;;;;;;;;0.00;0.00;;;;;16.88;68.40;101969.44;5041238;28;45289;-82
2021/08/31 02:51:44;;;;;;;;;0.00;0.00;;;;;16.85;68.14;101951.88;5041899;28;45310;-82
2021/08/31 02:54:10;;;;;;;;;0.00;0.00;;;;;16.75;68.29;101939.56;5042479;28;45340;-83
2021/08/31 02:56:35;;;;;;;;;0.00;0.00;;;;;17.06;68.11;101979.09;5043698;28;46305;-82
2021/08/31 02:59:01;;;;;;;;;0.00;0.00;;;;;16.83;68.29;101945.75;5031060;28;45462;-82
2021/08/31 03:03:54;;;;;;;;;0.00;0.00;;;;;16.85;68.27;101956.28;5027165;28;45223;-82
2021/08/31 03:06:20;;;;;;;;;0.00;0.00;;;;;16.82;68.50;101948.38;5027500;28;45285;-82
2021/08/31 03:08:45;;;;;;;;;1.00;0.00;;;;;16.74;68.23;101910.66;5015846;28;45240;-82
2021/08/31 03:11:10;;;;;;;;;0.25;0.00;;;;;17.09;68.49;101965.09;5041587;28;45243;-82
2021/08/31 03:13:36;;;;;;;;;0.00;0.00;;;;;17.09;67.88;101955.44;5041778;28;45275;-82
2021/08/31 03:16:01;;;;;;;;;0.00;0.00;;;;;16.77;67.86;101898.41;5041082;28;46458;-81
2021/08/31 03:18:26;;;;;;;;;0.00;0.00;;;;;16.91;67.90;101922.06;5040919;28;45282;-82
2021/08/31 03:20:52;;;;;;;;;0.25;0.25;;;;;17.13;68.19;101951.06;5040265;28;45401;-82
2021/08/31 03:23:17;;;;;;;;;0.00;0.00;;;;;17.06;67.64;101941.41;5041401;28;45283;-82
2021/08/31 03:25:43;;;;;;;;;0.25;0.00;;;;;17.14;67.65;101962.44;5110003;27;47497;-82
2021/08/31 03:28:08;;;;;;;;;0.00;0.00;;;;;17.22;67.52;101958.09;5040596;28;45373;-82
2021/08/31 03:30:33;;;;;;;;;0.25;0.25;;;;;16.93;67.84;101912.44;5022822;28;45365;-82
2021/08/31 03:32:58;;;;;;;;;0.50;0.00;;;;;16.99;67.42;101931.75;5041172;28;45346;-82
2021/08/31 03:35:24;;;;;;;;;0.00;0.00;;;;;17.09;67.83;101959.84;5022273;28;47156;-82
2021/08/31 03:37:49;;;;;;;;;0.00;0.00;;;;;17.21;67.64;101973.00;5040616;28;45332;-82
2021/08/31 03:40:15;;;;;;;;;1.00;1.00;;;;;17.22;67.54;101972.09;5040733;28;45731;-82
2021/08/31 03:42:40;;;;;;;;;0.00;0.00;;;;;17.10;67.32;101930.03;5041224;28;45474;-81
2021/08/31 03:45:07;;;;;;;;;0.00;0.00;;;;;17.21;67.46;101951.06;5023239;28;46935;-82
2021/08/31 03:47:32;;;;;;;;;2.50;0.00;;;;;17.18;67.43;101949.31;5022923;28;45234;-83
2021/08/31 03:49:57;;;;;;;;;0.00;0.00;;;;;17.19;67.67;101964.25;5040523;28;45386;-82
2021/08/31 03:52:23;;;;;;;;;1.00;0.00;;;;;17.01;67.47;101930.88;5023043;28;45182;-82
2021/08/31 03:54:48;;;;;;;;;0.00;0.00;;;;;17.24;67.27;101979.16;5022513;28;48401;-82
2021/08/31 03:57:13;;;;;;;;;0.00;0.00;;;;;17.08;67.29;101963.34;5040890;28;45220;-81
2021/08/31 03:59:38;;;;;;;;;0.00;0.00;;;;;17.19;67.91;101987.91;5040207;28;45261;-82
2021/08/31 04:02:04;;;;;;;;;0.00;0.00;;;;;17.03;67.86;101968.53;5040138;28;45151;-81
2021/08/31 04:04:29;;;;;;;;;1.00;0.00;;;;;17.22;67.84;101994.94;5022380;28;46912;-82
2021/08/31 04:06:57;;;;;;;;;0.25;0.25;;;;;17.14;67.80;101975.59;5039314;28;45140;-82
2021/08/31 04:09:22;;;;;;;;;0.00;0.00;;;;;17.21;67.55;101995.78;5041279;28;45254;-82
2021/08/31 04:11:48;;;;;;;;;1.00;0.00;;;;;16.97;68.13;101965.94;5040376;28;45476;-82
2021/08/31 04:14:13;;;;;;;;;0.25;0.00;;;;;16.99;67.59;101966.78;5040356;28;45302;-81
2021/08/31 04:16:39;;;;;;;;;0.75;0.00;;;;;17.17;67.96;101994.91;5022062;28;45384;-81
2021/08/31 04:19:04;;;;;;;;;0.00;0.00;;;;;17.21;68.08;101999.31;5039808;28;45250;-81
2021/08/31 04:21:29;;;;;;;;;0.00;0.00;;;;;17.11;67.78;101973.84;5039727;28;45310;-80
2021/08/31 04:23:55;;;;;;;;;0.00;0.00;;;;;17.26;67.66;101985.25;5066409;27;47878;-81
2021/08/31 04:26:20;;;;;;;;;0.00;0.00;;;;;17.13;67.21;101971.22;5040466;28;45428;-81
2021/08/31 04:28:45;;;;;;;;;0.00;0.00;;;;;17.06;68.00;101975.59;5039125;28;45379;-82
2021/08/31 04:31:11;;;;;;;;;0.00;0.00;;;;;16.99;67.70;101968.56;5040997;28;45309;-82
2021/08/31 04:33:36;;;;;;;;;0.00;0.00;;;;;17.19;68.18;102003.72;5040334;28;45447;-81
2021/08/31 04:36:02;;;;;;;;;0.00;0.00;;;;;17.07;67.87;101980.88;5039513;28;45251;-82
2021/08/31 04:38:27;;;;;;;;;0.00;0.00;;;;;16.97;67.66;101955.41;5040495;28;45405;-81
2021/08/31 04:40:52;;;;;;;;;0.00;0.00;;;;;17.18;67.87;101996.66;5040049;28;45440;-81
2021/08/31 04:43:18;;;;;;;;;0.25;0.25;;;;;17.40;67.91;102006.34;5041773;28;45242;-81
2021/08/31 04:45:43;;;;;;;;;0.00;0.00;;;;;17.41;67.39;102001.06;5043021;28;45291;-82
2021/08/31 04:48:08;;;;;;;;;0.00;0.00;;;;;17.34;67.66;102002.81;5040461;28;45302;-80
2021/08/31 04:50:34;;;;;;;;;0.00;0.00;;;;;17.31;67.67;101999.31;5040918;28;45152;-82
2021/08/31 04:52:59;;;;;;;;;0.00;0.00;;;;;17.17;67.11;101986.13;5023248;28;47164;-80
2021/08/31 04:55:24;;;;;;;;;0.25;0.00;;;;;17.10;67.88;101969.47;5024680;28;45281;-81
2021/08/31 04:57:50;;;;;;;;;1.00;0.00;;;;;16.98;67.61;101959.78;5026943;28;45275;-80
2021/08/31 05:00:15;;;;;;;;;0.75;0.75;;;;;17.02;67.91;101971.19;5032096;28;45483;-82
2021/08/31 05:02:41;;;;;;;;;0.00;0.00;;;;;17.08;67.68;101992.28;5049162;28;45445;-80
2021/08/31 05:05:07;;;;;;;;;0.00;0.00;;;;;17.13;68.11;102019.47;5049699;28;45274;-80
2021/08/31 05:07:33;;;;;;;;;0.00;0.00;;;;;17.12;68.04;102020.31;5121072;27;44834;-80
2021/08/31 05:09:58;;;;;;;;;0.00;0.00;;;;;17.10;68.36;102019.47;5049666;28;45329;-82
2021/08/31 05:12:24;;;;;;;;;0.50;0.50;;;;;16.91;68.17;101985.19;5029159;28;47501;-80
2021/08/31 05:14:49;;;;;;;;;0.00;0.00;;;;;17.02;68.78;101997.47;5048072;28;44718;-80
2021/08/31 05:17:14;;;;;;;;;0.00;0.00;;;;;17.00;68.75;101994.00;5045301;28;47760;-80
2021/08/31 05:19:42;;;;;;;;;0.00;0.00;;;;;16.93;68.86;101966.78;5045472;28;45295;-83
2021/08/31 05:22:08;;;;;;;;;1.50;1.00;;;;;17.16;68.75;102008.97;5043527;28;45215;-82
2021/08/31 05:24:34;;;;;;;;;0.25;0.25;;;;;17.02;68.68;101989.59;5095991;27;45332;-80
2021/08/31 05:26:59;;;;;;;;;2.50;0.75;;;;;17.21;68.35;102020.34;5042934;28;45361;-81
2021/08/31 05:29:25;;;;;;;;;0.50;0.50;;;;;17.25;68.74;102023.00;5045122;28;45581;-80
2021/08/31 05:31:50;;;;;;;;;0.00;0.00;;;;;17.06;68.48;101997.53;5040369;28;45628;-81
2021/08/31 05:34:16;;;;;;;;;0.00;0.00;;;;;17.16;69.01;102024.75;5040867;28;45298;-82
2021/08/31 05:36:41;;;;;;;;;0.00;0.00;;;;;17.18;68.72;102025.59;5109374;27;45438;-81
2021/08/31 05:39:06;;;;;;;;;0.00;0.00;;;;;17.04;68.69;102008.91;5022185;28;45172;-83
2021/08/31 05:41:33;;;;;;;;;0.00;0.00;;;;;17.17;69.42;102018.59;5039413;28;45350;-82
2021/08/31 05:43:59;;;;;;;;;0.00;0.00;;;;;17.23;68.88;102015.09;5040346;28;45254;-81
2021/08/31 05:46:24;;;;;;;;;0.00;0.00;;;;;17.24;68.40;102013.34;5021926;28;45341;-80
2021/08/31 05:48:49;;;;;;;;;0.75;0.00;;;;;17.20;68.33;102008.09;5022037;28;45270;-84
2021/08/31 05:51:17;;;;;;;;;0.50;0.50;;;;;17.21;68.62;102030.00;5039011;28;46086;-83
2021/08/31 05:53:43;;;;;;;;;0.00;0.00;;;;;17.02;69.18;101997.47;5047509;27;45214;-82
2021/08/31 05:56:08;;;;;;;;;0.75;0.50;;;;;16.92;69.17;101992.22;5050354;27;45562;-80
2021/08/31 05:58:33;;;;;;;;;0.00;0.00;;;;;17.17;69.35;102028.22;5039877;28;45447;-83
2021/08/31 06:00:59;;;;;;;;;0.25;0.25;;;;;17.10;69.30;102022.09;5113054;27;47099;-82
2021/08/31 06:03:24;;;;;;;;;1.00;0.50;;;;;17.20;69.03;102039.66;5051790;28;45403;-82
2021/08/31 06:05:49;;;;;;;;;1.00;0.75;;;;;17.26;68.90;102041.41;5067581;28;44794;-81
2021/08/31 06:08:15;;;;;;;;;0.75;0.75;;;;;17.16;69.14;102018.59;5054422;28;45273;-81
2021/08/31 06:10:42;;;;;;;;;0.25;0.25;;;;;17.25;69.01;102031.78;5055101;28;45056;-80
2021/08/31 06:13:07;;;;;;;;;2.25;1.00;;;;;17.14;68.93;102015.97;5051540;28;45474;-82
2021/08/31 06:15:32;;;;;;;;;0.00;0.00;;;;;17.16;68.84;102008.97;5037501;27;45652;-81
2021/08/31 06:17:58;;;;;;;;;0.00;0.00;;;;;17.33;68.71;102031.75;5038848;28;45575;-82
2021/08/31 06:20:23;;;;;;;;;0.25;0.25;;;;;17.39;68.24;102034.41;5085857;27;47157;-84
2021/08/31 06:22:48;;;;;;;;;3.00;1.00;;;;;17.43;68.78;102053.72;5039225;28;45489;-83
2021/08/31 06:25:14;;;;;;;;;1.50;1.00;;;;;17.47;68.80;102055.47;5050399;27;45432;-76
2021/08/31 06:27:39;;;;;;;;;0.75;0.50;;;;;17.42;68.39;102052.84;5037665;28;45400;-82
2021/08/31 06:30:05;;;;;;;;;2.25;0.75;;;;;17.45;68.24;102052.84;5039555;28;45301;-83
2021/08/31 06:32:31;;;;;;;;;0.50;0.50;;;;;17.40;68.70;102043.19;5140842;27;45336;-83
2021/08/31 06:34:56;;;;;;;;;0.50;0.25;;;;;17.34;68.67;102031.75;5147947;27;45479;-84
2021/08/31 06:37:21;;;;;;;;;0.00;0.00;;;;;17.44;68.57;102056.34;5148411;27;45482;-83
2021/08/31 06:39:47;;;;;;;;;0.00;0.00;;;;;17.34;68.76;102037.03;5147336;27;45198;-85
2021/08/31 06:42:12;;;;;;;;;0.00;0.00;;;;;17.29;68.39;102016.84;5058598;27;45628;-86
2021/08/31 06:44:38;;;;;;;;;0.00;0.00;;;;;17.46;68.35;102035.31;5024601;28;45351;-86
2021/08/31 06:47:05;;;;;;;;;1.25;1.25;;;;;17.55;68.25;102053.72;5054407;28;45446;-86
2021/08/31 06:49:30;;;;;;;;;1.00;1.00;;;;;17.43;68.41;102049.31;5041600;28;45442;-86
2021/08/31 06:51:56;;;;;;;;;0.00;0.00;;;;;17.55;68.61;102066.03;5023882;27;45417;-84
2021/08/31 06:54:21;;;;;;;;;0.50;0.50;;;;;17.57;68.29;102062.50;5040944;28;45307;-81
2021/08/31 06:56:47;;;;;;;;;1.00;1.00;;;;;17.63;68.07;102050.19;5042563;28;45439;-84
2021/08/31 06:59:12;;;;;;;;;2.25;0.75;;;;;17.73;67.87;102059.84;5041488;28;45593;-83
2021/08/31 07:01:38;;;;;;;;;0.00;0.00;;;;;17.66;67.91;102030.03;5041192;28;45397;-82
2021/08/31 07:04:03;;;;;;;;;0.75;0.75;;;;;17.87;68.16;102062.50;5024326;28;45643;-81
2021/08/31 07:06:29;;;;;;;;;0.00;0.00;;;;;17.87;67.79;102059.84;5041852;28;45326;-82
2021/08/31 07:08:54;;;;;;;;;0.00;0.00;;;;;17.94;67.81;102066.88;5045151;28;45466;-83
2021/08/31 07:11:19;;;;;;;;;2.50;2.50;;;;;18.00;67.38;102068.63;5063945;27;45393;-84
2021/08/31 07:13:45;;;;;;;;;0.00;0.00;;;;;17.82;67.50;102030.88;5041045;28;45846;-88
2021/08/31 07:16:10;;;;;;;;;0.25;0.25;;;;;17.93;67.67;102054.59;5043686;28;45416;-87
2021/08/31 07:18:35;;;;;;;;;0.25;0.25;;;;;18.08;67.43;102073.88;5040021;28;45554;-84
2021/08/31 07:21:01;;;;;;;;;1.00;1.00;;;;;18.10;67.07;102073.03;5064546;27;45347;-85
2021/08/31 07:23:26;;;;;;;;;0.00;0.00;;;;;17.97;67.49;102044.91;5040191;28;45524;-84
2021/08/31 07:25:52;;;;;;;;;1.00;1.00;;;;;18.15;66.90;102058.97;5062407;27;45192;-86
2021/08/31 07:28:17;;;;;;;;;3.25;2.00;;;;;18.31;66.62;102075.63;5061730;27;48582;-86
2021/08/31 07:30:43;;;;;;;;;1.50;0.50;;;;;18.43;66.83;102070.31;5047247;28;45194;-84
2021/08/31 07:33:09;;;;;;;;;3.00;3.00;;;;;18.43;66.45;102070.31;5032035;28;45332;-82
2021/08/31 07:35:35;;;;;;;;;2.00;1.00;;;;;18.36;66.29;102063.31;5049140;28;45411;-84
2021/08/31 07:38:02;;;;;;;;;2.50;1.00;;;;;18.22;66.24;102055.44;5042794;28;45435;-83
2021/08/31 07:40:27;;;;;;;;;4.00;2.25;;;;;18.04;66.46;102025.56;5084919;27;45281;-84
2021/08/31 07:42:53;;;;;;;;;2.00;2.00;;;;;18.37;66.15;102075.59;5042853;28;45469;-88
2021/08/31 07:45:22;;;;;;;;;1.25;1.00;;;;;18.31;66.09;102071.22;5041439;28;45493;-89
2021/08/31 07:47:49;;;;;;;;;1.00;1.00;;;;;18.40;66.45;102080.88;5038568;27;47024;-85
2021/08/31 07:50:15;;;;;;;;;0.25;0.25;;;;;18.48;65.91;102072.94;5065722;28;45241;-86
2021/08/31 07:52:41;;;;;;;;;1.50;1.50;;;;;18.57;66.07;102078.19;5027319;28;45531;-83
2021/08/31 07:55:09;;;;;;;;;0.00;0.00;;;;;18.60;65.77;102080.81;5035968;27;45623;-86
2021/08/31 07:57:36;;;;;;;;;1.75;0.25;;;;;18.48;65.40;102055.38;5038682;27;45606;-85
2021/08/31 08:00:05;;;;;;;;;0.25;0.25;;;;;18.42;65.32;102029.03;5041284;28;45438;-82
2021/08/31 08:02:34;;;;;;;;;2.00;2.00;;;;;18.72;65.26;102076.38;5024417;28;45551;-88
2021/08/31 08:05:04;;;;;;;;;0.00;0.00;;;;;18.84;65.33;102078.09;5049476;28;45435;-85
2021/08/31 08:07:30;;;;;;;;;1.75;1.75;;;;;18.88;64.66;102087.72;5023799;27;46938;-88
2021/08/31 08:09:56;;;;;;;;;1.50;1.50;;;;;18.91;64.54;102093.00;5036466;27;45298;-86
2021/08/31 08:12:22;;;;;;;;;0.50;0.50;;;;;18.60;64.32;102030.72;5065382;27;45319;-86
2021/08/31 08:14:49;;;;;;;;;2.00;2.00;;;;;19.12;64.35;102092.03;5053451;27;45525;-86
2021/08/31 08:17:24;;;;;;;;;0.75;0.00;;;;;19.14;63.73;102073.53;5023495;27;46193;-88
2021/08/31 08:19:50;;;;;;;;;0.00;0.00;;;;;19.06;63.89;102048.94;5041250;28;45326;-87
2021/08/31 08:22:17;;;;;;;;;0.25;0.25;;;;;19.29;63.54;102074.34;5041102;28;45417;-85
2021/08/31 08:24:42;;;;;;;;;0.00;0.00;;;;;19.53;62.89;102089.13;5027605;27;45462;-88
2021/08/31 08:27:08;;;;;;;;;3.25;1.75;;;;;19.66;62.46;102081.97;5032437;27;47442;-84
2021/08/31 08:29:37;;;;;;;;;0.00;0.00;;;;;19.85;62.13;102098.53;5038988;28;45694;-83
2021/08/31 08:32:08;;;;;;;;;0.25;0.00;;;;;19.94;61.72;102097.59;5038712;28;45581;-79
2021/08/31 08:34:34;;;;;;;;;1.50;0.00;;;;;19.87;61.18;102070.34;5036235;28;44942;-81
2021/08/31 08:37:02;;;;;;;;;0.00;0.00;;;;;19.99;60.95;102076.41;5044176;28;46278;-88
2021/08/31 08:39:28;;;;;;;;;0.00;0.00;;;;;20.08;60.67;102105.44;5048918;28;45347;-82
2021/08/31 08:41:54;;;;;;;;;1.75;0.00;;;;;20.10;60.33;102089.56;5041122;27;45487;-83
2021/08/31 08:44:19;;;;;;;;;2.00;0.00;;;;;20.22;60.26;102100.00;5041220;28;45322;-80
2021/08/31 08:46:47;;;;;;;;;1.00;0.75;;;;;20.09;59.99;102079.88;5039926;28;45671;-81
2021/08/31 08:49:13;;;;;;;;;2.75;1.00;;;;;20.06;59.61;102086.06;5039491;28;45391;-81
2021/08/31 08:51:39;;;;;;;;;0.75;0.75;;;;;20.05;59.40;102091.34;5027824;28;45300;-82
2021/08/31 08:54:06;;;;;;;;;0.00;0.00;;;;;20.10;59.86;102113.34;5047212;28;45523;-81
2021/08/31 08:56:35;;;;;;;;;2.25;0.00;;;;;20.16;59.77;102121.22;5059667;27;45722;-81
2021/08/31 08:59:00;;;;;;;;;0.00;0.00;;;;;20.05;59.78;102107.22;5044920;28;45295;-84
2021/08/31 09:01:40;;;;;;;;;1.00;1.00;;;;;20.16;59.49;102108.00;5051536;28;45322;-83
2021/08/31 09:04:05;;;;;;;;;0.00;0.00;;;;;20.28;59.03;102117.59;5033935;28;45183;-86
2021/08/31 09:06:31;;;;;;;;;1.00;1.00;;;;;20.21;58.87;102129.97;5036627;28;46912;-84
2021/08/31 09:08:58;;;;;;;;;0.50;0.50;;;;;20.04;59.10;102092.25;5045997;28;45577;-85
2021/08/31 09:11:30;;;;;;;;;0.75;0.75;;;;;20.18;59.44;102108.00;5038706;27;45277;-84
2021/08/31 09:14:27;;;;;;;;;2.25;1.00;;;;;20.29;58.89;102105.22;5045683;28;45493;-84
2021/08/31 09:16:58;;;;;;;;;0.00;0.00;;;;;20.38;58.73;102121.88;5049133;28;45616;-85
2021/08/31 09:19:49;;;;;;;;;2.25;1.00;;;;;20.39;58.60;102120.09;5045476;27;45435;-83
2021/08/31 09:22:20;;;;;;;;;2.75;1.00;;;;;20.29;58.94;102103.47;5026458;27;45434;-84
2021/08/31 09:25:00;;;;;;;;;0.00;0.00;;;;;20.20;59.04;102099.16;5045944;28;45213;-85
2021/08/31 09:27:40;;;;;;;;;1.00;1.00;;;;;20.36;58.98;102120.13;5040165;28;46201;-86
2021/08/31 09:30:21;;;;;;;;;1.50;1.50;;;;;20.07;58.61;102087.84;5042310;28;45246;-85
2021/08/31 09:33:09;;;;;;;;;1.25;0.75;;;;;20.22;59.23;102125.56;5030189;28;45440;-84
2021/08/31 09:35:44;;;;;;;;;1.00;1.00;;;;;20.24;59.11;102121.13;5050640;28;45314;-84
2021/08/31 09:38:11;;;;;;;;;0.00;0.00;;;;;20.37;58.50;102122.75;5045893;28;45391;-83
2021/08/31 09:40:42;;;;;;;;;1.50;0.00;;;;;20.55;58.13;102120.81;5046181;28;45160;-84
2021/08/31 09:43:13;;;;;;;;;1.50;1.00;;;;;20.57;57.80;102102.25;5040749;28;45287;-84
2021/08/31 09:45:41;;;;;;;;;0.00;0.00;;;;;20.74;57.25;102100.28;5040121;28;45327;-86
2021/08/31 09:48:10;;;;;;;;;0.25;0.25;;;;;20.96;57.05;102110.66;5038188;28;47534;-85
2021/08/31 09:50:44;;;;;;;;;0.25;0.00;;;;;20.74;56.97;102099.44;5023652;28;45293;-86
2021/08/31 09:53:17;;;;;;;;;1.00;0.50;;;;;20.62;57.22;102088.09;5029519;28;45490;-87
2021/08/31 09:55:45;;;;;;;;;0.00;0.00;;;;;20.87;57.63;102130.13;5056149;28;45437;-88
2021/08/31 09:58:20;;;;;;;;;0.75;0.75;;;;;20.84;57.36;102124.88;5041323;28;45497;-85
2021/08/31 10:00:47;;;;;;;;;1.25;1.25;;;;;20.80;56.92;102120.53;5054310;28;45249;-87
2021/08/31 10:03:14;;;;;;;;;0.00;0.00;;;;;20.76;57.71;102122.31;5042546;28;45330;-86
2021/08/31 10:05:41;;;;;;;;;0.00;0.00;;;;;20.76;56.86;102130.25;5025888;28;45377;-87
2021/08/31 10:08:07;;;;;;;;;0.00;0.00;;;;;20.70;56.84;102129.47;5042000;28;46587;-87
2021/08/31 10:10:34;;;;;;;;;0.00;0.00;;;;;20.32;56.69;102068.19;5042982;28;45229;-86
2021/08/31 10:13:15;;;;;;;;;2.00;2.00;;;;;20.56;56.85;102112.00;5042616;28;45280;-88
2021/08/31 10:15:46;;;;;;;;;3.00;2.00;;;;;20.40;56.71;102052.22;5023304;28;45602;-88
2021/08/31 10:18:14;;;;;;;;;0.00;0.00;;;;;21.01;56.26;102119.41;5042347;28;45368;-88
2021/08/31 10:20:48;;;;;;;;;4.75;2.25;;;;;21.01;55.44;102111.44;5034491;27;46834;-89
2021/08/31 10:23:16;;;;;;;;;0.50;0.50;;;;;20.99;55.40;102097.38;5039250;28;45218;-89
2021/08/31 10:25:42;;;;;;;;;1.00;1.00;;;;;21.22;54.92;102121.78;5059334;27;45418;-90
2021/08/31 10:28:27;;;;;;;;;0.00;0.00;;;;;21.08;55.22;102098.13;5043277;27;47761;-89
2021/08/31 10:30:54;;;;;;;;;1.75;1.25;;;;;21.21;54.81;102131.50;5064223;27;45252;-88
2021/08/31 10:33:33;;;;;;;;;0.00;0.00;;;;;21.30;54.64;102132.25;5043504;27;44888;-89
2021/08/31 10:36:00;;;;;;;;;1.25;1.25;;;;;21.32;55.13;102114.56;5053018;28;45558;-86
2021/08/31 10:38:57;;;;;;;;;0.00;0.00;;;;;21.55;54.51;102134.53;5053848;27;48216;-87
2021/08/31 10:41:31;;;;;;;;;2.00;0.00;;;;;21.47;54.41;102113.47;5065100;27;45387;-85
2021/08/31 10:43:57;;;;;;;;;0.25;0.25;;;;;21.59;53.99;102145.06;5055767;27;45318;-83
2021/08/31 10:46:23;;;;;;;;;0.25;0.25;;;;;21.42;54.00;102123.25;5042582;28;45308;-86
2021/08/31 10:49:02;;;;;;;;;0.50;0.50;;;;;21.51;54.32;102142.53;5033622;28;48263;-85
2021/08/31 10:51:28;;;;;;;;;3.00;0.75;;;;;21.54;54.16;102138.97;5040870;28;45823;-81
2021/08/31 10:53:53;;;;;;;;;1.00;1.00;;;;;21.44;53.85;102117.00;5026223;28;45327;-82
2021/08/31 10:56:28;;;;;;;;;0.50;0.50;;;;;21.57;53.06;102138.03;5040165;28;45307;-82
2021/08/31 10:59:05;;;;;;;;;1.00;1.00;;;;;21.45;52.95;102100.25;5022530;28;46950;-85
2021/08/31 11:01:41;;;;;;;;;0.50;0.50;;;;;21.84;53.26;102122.63;5044690;28;45384;-86
2021/08/31 11:04:26;;;;;;;;;1.00;0.00;;;;;22.12;51.69;102136.28;5045740;28;45316;-86
2021/08/31 11:07:03;;;;;;;;;0.00;0.00;;;;;22.06;51.21;102095.72;5045731;28;45368;-84
2021/08/31 11:09:29;;;;;;;;;0.50;0.25;;;;;22.25;51.80;102102.44;5044982;28;46845;-81
2021/08/31 11:12:14;;;;;;;;;0.50;0.50;;;;;22.45;50.15;102127.69;5058644;28;45099;-83
2021/08/31 11:14:45;;;;;;;;;0.50;0.00;;;;;22.51;51.16;102124.94;5062083;28;45245;-89
2021/08/31 11:17:11;;;;;;;;;0.00;0.00;;;;;22.46;50.13;102129.47;5044026;27;45355;-84
2021/08/31 11:19:36;;;;;;;;;0.00;0.00;;;;;22.62;50.72;102122.09;5041302;28;46454;-83
2021/08/31 11:22:10;;;;;;;;;0.00;0.00;;;;;21.99;51.10;102032.22;5039625;28;45388;-87
2021/08/31 11:24:35;;;;;;;;;0.00;0.00;;;;;22.38;50.38;102121.66;5049752;27;44813;-85
2021/08/31 11:27:05;;;;;;;;;0.25;0.25;;;;;22.27;51.15;102095.31;5043632;27;45239;-88